createdAt,value
2022-08-03T00:00:24.244Z,44.13
2022-08-03T00:02:51.099Z,44.16
2022-08-03T00:05:17.753Z,44.18
2022-08-03T00:07:44.220Z,44.09
2022-08-03T00:10:11.262Z,44.35
2022-08-03T00:12:37.730Z,44.36
2022-08-03T00:15:04.602Z,44.13
2022-08-03T00:17:52.846Z,44.04
2022-08-03T00:20:21.720Z,44.45
2022-08-03T00:22:48.727Z,44.46
2022-08-03T00:25:15.399Z,44.18
2022-08-03T00:27:41.862Z,44.23
2022-08-03T00:30:08.703Z,44.65
2022-08-03T00:32:35.212Z,44.79
2022-08-03T00:35:07.919Z,44.74
2022-08-03T00:37:41.723Z,44.87
2022-08-03T00:40:12.905Z,44.90
2022-08-03T00:42:50.805Z,44.43
2022-08-03T00:45:22.904Z,44.75
2022-08-03T00:47:50.398Z,44.94
2022-08-03T00:50:18.482Z,45.21
2022-08-03T00:52:45.374Z,45.12
2022-08-03T00:55:12.785Z,45.58
2022-08-03T00:57:39.643Z,45.68
2022-08-03T01:00:07.992Z,45.78
2022-08-03T01:02:35.038Z,45.91
2022-08-03T01:05:01.552Z,46.04
2022-08-03T01:08:00.330Z,45.79
2022-08-03T01:10:49.612Z,45.09
2022-08-03T01:14:04.588Z,45.58
2022-08-03T01:16:36.784Z,45.66
2022-08-03T01:19:32.422Z,45.60
2022-08-03T01:22:04.455Z,45.91
2022-08-03T01:24:56.379Z,46.06
2022-08-03T01:27:31.322Z,46.19
2022-08-03T01:30:12.439Z,45.97
2022-08-03T01:33:02.785Z,46.24
2022-08-03T01:35:38.647Z,46.68
2022-08-03T01:38:41.981Z,46.00
2022-08-03T01:41:12.837Z,46.42
2022-08-03T01:44:27.652Z,46.89
2022-08-03T01:46:31.391Z,47.13
2022-08-03T01:48:59.769Z,47.27
2022-08-03T01:52:03.351Z,47.39
2022-08-03T01:54:16.487Z,47.41
2022-08-03T01:56:44.109Z,47.54
2022-08-03T01:59:12.547Z,47.60
2022-08-03T02:02:29.768Z,47.53
2022-08-03T02:04:28.357Z,47.36
2022-08-03T02:07:02.039Z,47.42
2022-08-03T02:09:31.759Z,47.71
2022-08-03T02:11:59.168Z,48.00
2022-08-03T02:14:27.992Z,47.67
2022-08-03T02:16:57.296Z,47.91
2022-08-03T02:19:26.610Z,47.96
2022-08-03T02:21:56.392Z,48.28
2022-08-03T02:24:27.808Z,47.78
2022-08-03T02:26:56.606Z,48.13
2022-08-03T02:29:39.867Z,48.07
2022-08-03T02:32:11.560Z,48.08
2022-08-03T02:34:39.894Z,48.34
2022-08-03T02:37:08.604Z,48.24
2022-08-03T02:39:36.315Z,48.59
2022-08-03T02:42:03.371Z,48.77
2022-08-03T02:44:32.706Z,49.05
2022-08-03T02:47:04.979Z,48.45
2022-08-03T02:49:40.444Z,49.12
2022-08-03T02:52:21.248Z,48.91
2022-08-03T02:54:51.189Z,49.08
2022-08-03T02:57:19.972Z,48.87
2022-08-03T02:59:47.556Z,49.01
2022-08-03T03:02:16.821Z,49.05
2022-08-03T03:05:53.026Z,49.22
2022-08-03T03:07:35.350Z,49.11
2022-08-03T03:10:19.729Z,49.51
2022-08-03T03:12:48.230Z,49.31
2022-08-03T03:15:14.748Z,49.32
2022-08-03T03:17:43.712Z,49.26
2022-08-03T03:20:11.563Z,49.93
2022-08-03T03:22:39.819Z,49.70
2022-08-03T03:25:07.502Z,49.64
2022-08-03T03:27:34.555Z,50.04
2022-08-03T03:30:02.227Z,50.00
2022-08-03T03:32:29.564Z,50.17
2022-08-03T03:34:56.991Z,50.37
2022-08-03T03:37:23.442Z,50.14
2022-08-03T03:39:49.968Z,50.42
2022-08-03T03:42:16.823Z,50.25
2022-08-03T03:44:43.473Z,50.35
2022-08-03T03:47:10.000Z,50.71
2022-08-03T03:49:37.898Z,50.46
2022-08-03T03:52:04.560Z,50.77
2022-08-03T03:54:44.910Z,49.85
2022-08-03T03:57:13.187Z,50.33
2022-08-03T03:59:41.595Z,50.84
2022-08-03T04:02:09.229Z,50.61
2022-08-03T04:04:55.136Z,51.01
2022-08-03T04:07:42.784Z,50.40
2022-08-03T04:10:35.807Z,50.62
2022-08-03T04:13:06.958Z,50.89
2022-08-03T04:15:34.883Z,51.27
2022-08-03T04:18:03.585Z,51.31
2022-08-03T04:20:35.395Z,51.06
2022-08-03T04:23:03.221Z,51.04
2022-08-03T04:25:40.318Z,51.56
2022-08-03T04:28:30.047Z,51.55
2022-08-03T04:30:56.805Z,51.39
2022-08-03T04:33:29.212Z,51.87
2022-08-03T04:36:02.713Z,51.64
2022-08-03T04:38:32.873Z,51.44
2022-08-03T04:41:01.087Z,51.86
2022-08-03T04:43:29.420Z,51.83
2022-08-03T04:45:56.883Z,51.74
2022-08-03T04:48:23.874Z,51.91
2022-08-03T04:50:50.602Z,51.59
2022-08-03T04:53:18.127Z,51.81
2022-08-03T04:55:46.043Z,52.25
2022-08-03T04:58:12.728Z,51.95
2022-08-03T05:00:39.330Z,51.90
2022-08-03T05:03:20.327Z,52.01
2022-08-03T05:05:52.851Z,51.77
2022-08-03T05:08:20.454Z,51.93
2022-08-03T05:10:54.669Z,52.11
2022-08-03T05:13:21.128Z,52.31
2022-08-03T05:15:47.579Z,52.30
2022-08-03T05:18:14.512Z,52.18
2022-08-03T05:20:41.354Z,52.25
2022-08-03T05:23:07.872Z,52.18
2022-08-03T05:25:34.401Z,52.44
2022-08-03T05:28:01.360Z,51.99
2022-08-03T05:30:33.483Z,51.81
2022-08-03T05:33:01.585Z,52.02
2022-08-03T05:36:01.149Z,52.01
2022-08-03T05:38:15.471Z,52.11
2022-08-03T05:40:57.236Z,51.74
2022-08-03T05:43:24.497Z,51.65
2022-08-03T05:46:11.452Z,51.44
2022-08-03T05:48:37.862Z,51.48
2022-08-03T05:51:15.612Z,51.49
2022-08-03T05:53:43.099Z,51.13
2022-08-03T05:56:14.666Z,51.21
2022-08-03T05:58:47.372Z,51.06
2022-08-03T06:01:15.792Z,51.34
2022-08-03T06:03:42.548Z,50.87
2022-08-03T06:06:09.022Z,51.12
2022-08-03T06:08:35.664Z,50.63
2022-08-03T06:11:02.304Z,50.66
2022-08-03T06:13:29.441Z,50.67
2022-08-03T06:15:55.943Z,50.64
2022-08-03T06:18:24.014Z,50.81
2022-08-03T06:20:51.228Z,50.42
2022-08-03T06:23:19.049Z,50.68
2022-08-03T06:25:45.931Z,50.24
2022-08-03T06:31:00.941Z,50.12
2022-08-03T06:33:48.509Z,50.55
2022-08-03T06:36:14.064Z,50.34
2022-08-03T06:38:40.513Z,49.30
2022-08-03T06:41:06.956Z,49.83
2022-08-03T06:43:37.423Z,49.63
2022-08-03T06:46:05.587Z,49.58
2022-08-03T06:48:32.598Z,49.25
2022-08-03T06:50:59.505Z,49.48
2022-08-03T06:53:26.330Z,49.37
2022-08-03T06:55:54.977Z,49.39
2022-08-03T06:58:22.098Z,48.64
2022-08-03T07:00:48.600Z,48.87
2022-08-03T07:03:15.166Z,48.68
2022-08-03T07:05:43.483Z,48.55
2022-08-03T07:08:10.087Z,48.88
2022-08-03T07:10:37.009Z,48.44
2022-08-03T07:13:03.838Z,48.23
2022-08-03T07:15:53.953Z,48.08
2022-08-03T07:18:17.717Z,47.85
2022-08-03T07:20:56.432Z,47.97
2022-08-03T07:23:22.940Z,47.60
2022-08-03T07:25:50.776Z,47.37
2022-08-03T07:28:17.334Z,47.15
2022-08-03T07:30:43.805Z,47.06
2022-08-03T07:33:10.223Z,46.83
2022-08-03T07:35:38.211Z,46.56
2022-08-03T07:38:05.586Z,46.33
2022-08-03T07:40:32.232Z,46.15
2022-08-03T07:42:59.878Z,46.14
2022-08-03T07:45:26.852Z,45.79
2022-08-03T07:47:54.212Z,45.46
2022-08-03T07:50:21.544Z,45.38
2022-08-03T07:52:48.872Z,44.92
2022-08-03T07:55:17.101Z,44.89
2022-08-03T07:57:43.697Z,44.54
2022-08-03T08:00:16.746Z,44.21
2022-08-03T08:02:44.003Z,44.60
2022-08-03T08:05:11.115Z,44.15
2022-08-03T08:07:38.938Z,43.92
2022-08-03T08:10:07.554Z,43.50
2022-08-03T08:12:34.104Z,43.04
2022-08-03T08:15:00.587Z,42.30
2022-08-03T08:17:27.290Z,42.34
2022-08-03T08:19:53.990Z,42.31
2022-08-03T08:22:23.468Z,42.13
2022-08-03T08:24:58.384Z,41.88
2022-08-03T08:27:24.890Z,41.38
2022-08-03T08:29:54.231Z,41.86
2022-08-03T08:32:23.441Z,41.54
2022-08-03T08:34:50.030Z,41.18
2022-08-03T08:37:16.493Z,40.75
2022-08-03T08:39:42.984Z,40.71
2022-08-03T08:42:10.270Z,40.81
2022-08-03T08:44:36.985Z,41.16
2022-08-03T08:47:04.485Z,40.45
2022-08-03T08:49:32.954Z,40.17
2022-08-03T08:52:01.046Z,40.51
2022-08-03T08:54:29.641Z,40.02
2022-08-03T08:56:57.516Z,39.57
2022-08-03T08:59:25.062Z,39.14
2022-08-03T09:01:51.669Z,39.03
2022-08-03T09:04:18.522Z,38.98
2022-08-03T09:07:04.396Z,39.51
2022-08-03T09:10:10.452Z,38.82
2022-08-03T09:12:39.130Z,38.12
2022-08-03T09:15:28.331Z,38.73
2022-08-03T09:17:56.849Z,38.08
2022-08-03T09:20:24.847Z,38.15
2022-08-03T09:22:56.491Z,37.95
2022-08-03T09:25:29.007Z,37.56
2022-08-03T09:27:55.623Z,37.84
2022-08-03T09:30:34.405Z,37.94
2022-08-03T09:33:06.567Z,37.64
2022-08-03T09:35:52.982Z,37.19
2022-08-03T09:38:28.510Z,37.15
2022-08-03T09:41:00.001Z,37.33
2022-08-03T09:43:27.614Z,37.46
2022-08-03T09:46:03.554Z,37.19
2022-08-03T09:48:31.821Z,37.15
2022-08-03T09:51:12.834Z,36.74
2022-08-03T09:53:58.832Z,37.08
2022-08-03T09:56:44.758Z,36.78
2022-08-03T09:59:13.043Z,36.82
2022-08-03T10:01:43.271Z,36.55
2022-08-03T10:04:15.073Z,36.32
2022-08-03T10:06:41.620Z,36.47
2022-08-03T10:09:17.028Z,36.25
2022-08-03T10:11:46.820Z,36.66
2022-08-03T10:14:19.997Z,36.63
2022-08-03T10:16:52.697Z,36.75
2022-08-03T10:19:19.475Z,36.52
2022-08-03T10:21:53.582Z,36.67
2022-08-03T10:24:29.625Z,36.80
2022-08-03T10:27:11.412Z,37.08
2022-08-03T10:29:39.507Z,36.69
2022-08-03T10:32:19.021Z,36.09
2022-08-03T10:34:50.387Z,36.30
2022-08-03T10:37:17.881Z,36.04
2022-08-03T10:39:54.089Z,35.74
2022-08-03T10:42:35.118Z,36.53
2022-08-03T10:45:08.693Z,36.35
2022-08-03T10:47:36.551Z,35.85
2022-08-03T10:50:10.106Z,36.56
2022-08-03T10:52:53.447Z,36.04
2022-08-03T10:55:50.385Z,35.54
2022-08-03T10:58:36.782Z,36.04
2022-08-03T11:01:08.568Z,35.43
2022-08-03T11:03:57.662Z,35.72
2022-08-03T11:06:26.413Z,35.81
2022-08-03T11:09:11.195Z,35.44
2022-08-03T11:11:39.371Z,34.67
2022-08-03T11:14:10.045Z,34.71
2022-08-03T11:16:39.527Z,34.73
2022-08-03T11:19:07.914Z,34.82
2022-08-03T11:21:52.672Z,34.78
2022-08-03T11:24:37.591Z,34.65
2022-08-03T11:27:29.798Z,34.88
2022-08-03T11:30:10.955Z,34.51
2022-08-03T11:32:37.349Z,33.88
2022-08-03T11:35:08.626Z,34.19
2022-08-03T11:37:35.472Z,33.36
2022-08-03T11:40:03.020Z,32.69
2022-08-03T11:42:29.585Z,32.38
2022-08-03T11:44:58.180Z,32.89
2022-08-03T11:47:50.560Z,32.37
2022-08-03T11:50:19.347Z,32.56
2022-08-03T11:52:46.088Z,32.39
2022-08-03T11:55:14.279Z,32.37
2022-08-03T11:58:58.210Z,32.06
2022-08-03T12:00:32.687Z,31.73
2022-08-03T12:03:02.188Z,32.12
2022-08-03T12:05:42.448Z,32.13
2022-08-03T12:08:27.709Z,31.70
2022-08-03T12:10:56.492Z,31.39
2022-08-03T12:14:05.773Z,31.33
2022-08-03T12:16:18.635Z,31.47
2022-08-03T12:18:45.518Z,31.50
2022-08-03T12:21:12.708Z,30.73
2022-08-03T12:23:39.317Z,30.50
2022-08-03T12:26:08.681Z,30.28
2022-08-03T12:28:37.619Z,30.33
2022-08-03T12:31:12.104Z,30.18
2022-08-03T12:34:05.096Z,30.69
2022-08-03T12:36:34.909Z,30.22
2022-08-03T12:39:06.082Z,30.20
2022-08-03T12:41:37.990Z,30.35
2022-08-03T12:44:06.269Z,30.37
2022-08-03T12:46:38.009Z,30.51
2022-08-03T12:49:12.089Z,30.52
2022-08-03T12:52:05.353Z,30.88
2022-08-03T12:54:35.937Z,29.94
2022-08-03T12:57:03.820Z,30.22
2022-08-03T12:59:41.213Z,30.21
2022-08-03T13:02:20.371Z,29.80
2022-08-03T13:04:51.772Z,29.62
2022-08-03T13:07:19.889Z,30.03
2022-08-03T13:09:48.556Z,30.04
2022-08-03T13:12:20.995Z,29.89
2022-08-03T13:14:51.109Z,29.50
2022-08-03T13:17:18.050Z,29.67
2022-08-03T13:19:45.949Z,29.80
2022-08-03T13:22:12.594Z,29.71
2022-08-03T13:24:39.316Z,28.89
2022-08-03T13:28:02.022Z,29.27
2022-08-03T13:29:54.798Z,29.46
2022-08-03T13:32:21.664Z,28.93
2022-08-03T13:34:48.592Z,28.93
2022-08-03T13:37:15.967Z,28.75
2022-08-03T13:39:48.238Z,28.43
2022-08-03T13:42:27.266Z,28.44
2022-08-03T13:44:53.724Z,28.04
2022-08-03T13:47:20.667Z,28.19
2022-08-03T13:49:59.476Z,28.49
2022-08-03T13:52:29.238Z,27.88
2022-08-03T13:54:59.645Z,26.92
2022-08-03T13:58:04.904Z,27.52
2022-08-03T14:00:13.312Z,27.33
2022-08-03T14:02:53.999Z,27.00
2022-08-03T14:05:22.750Z,26.79
2022-08-03T14:07:49.370Z,27.23
2022-08-03T14:10:15.904Z,26.45
2022-08-03T14:12:42.399Z,26.40
2022-08-03T14:15:10.158Z,26.85
2022-08-03T14:17:42.078Z,26.91
2022-08-03T14:20:38.481Z,26.75
2022-08-03T14:23:02.955Z,26.69
2022-08-03T14:25:31.095Z,26.57
2022-08-03T14:28:09.849Z,26.30
2022-08-03T14:30:36.723Z,25.79
2022-08-03T14:33:03.477Z,26.30
2022-08-03T14:35:29.965Z,25.83
2022-08-03T14:37:56.487Z,26.38
2022-08-03T14:40:23.035Z,26.33
2022-08-03T14:42:49.535Z,26.22
2022-08-03T14:45:19.940Z,26.22
2022-08-03T14:50:24.524Z,26.20
2022-08-03T14:50:42.931Z,26.07
2022-08-03T14:53:12.320Z,25.66
2022-08-03T14:55:49.852Z,25.78
2022-08-03T14:58:19.562Z,25.86
2022-08-03T15:00:47.927Z,26.00
2022-08-03T15:03:16.569Z,25.84
2022-08-03T15:05:43.692Z,25.51
2022-08-03T15:08:10.244Z,25.94
2022-08-03T15:10:40.441Z,25.33
2022-08-03T15:13:12.888Z,25.75
2022-08-03T15:15:39.935Z,25.96
2022-08-03T15:18:06.465Z,25.79
2022-08-03T15:20:43.897Z,25.75
2022-08-03T15:23:11.455Z,25.48
2022-08-03T15:26:28.726Z,25.03
2022-08-03T15:28:24.611Z,25.33
2022-08-03T15:30:54.586Z,25.53
2022-08-03T15:33:21.175Z,24.94
2022-08-03T15:35:48.030Z,25.44
2022-08-03T15:38:14.757Z,25.29
2022-08-03T15:40:41.602Z,24.98
2022-08-03T15:43:08.293Z,24.91
2022-08-03T15:45:36.093Z,24.51
2022-08-03T15:48:03.154Z,24.78
2022-08-03T15:50:29.594Z,24.75
2022-08-03T15:52:56.515Z,24.41
2022-08-03T15:55:23.224Z,24.76
2022-08-03T15:59:10.431Z,24.22
2022-08-03T16:00:36.234Z,24.38
2022-08-03T16:03:03.222Z,24.72
2022-08-03T16:05:29.675Z,24.28
2022-08-03T16:08:03.221Z,24.46
2022-08-03T16:10:31.420Z,23.98
2022-08-03T16:13:01.168Z,24.11
2022-08-03T16:15:27.733Z,24.21
2022-08-03T16:17:54.592Z,23.93
2022-08-03T16:20:30.827Z,23.67
2022-08-03T16:23:10.480Z,23.63
2022-08-03T16:25:41.875Z,23.50
2022-08-03T16:28:13.897Z,23.80
2022-08-03T16:30:43.705Z,23.44
2022-08-03T16:33:11.174Z,23.32
2022-08-03T16:35:38.057Z,23.16
2022-08-03T16:38:09.599Z,22.93
2022-08-03T16:40:36.805Z,22.48
2022-08-03T16:43:18.979Z,22.34
2022-08-03T16:45:47.219Z,21.85
2022-08-03T16:48:15.115Z,22.12
2022-08-03T16:50:41.868Z,21.68
2022-08-03T16:53:09.868Z,22.02
2022-08-03T16:55:49.065Z,21.57
2022-08-03T16:58:19.679Z,21.20
2022-08-03T17:01:10.933Z,21.50
2022-08-03T17:04:02.411Z,20.99
2022-08-03T17:06:34.107Z,20.86
2022-08-03T17:09:03.109Z,20.51
2022-08-03T17:11:33.128Z,20.79
2022-08-03T17:14:00.520Z,20.83
2022-08-03T17:16:27.422Z,20.35
2022-08-03T17:19:02.532Z,20.40
2022-08-03T17:21:32.457Z,20.28
2022-08-03T17:24:23.700Z,20.97
2022-08-03T17:26:53.722Z,20.16
2022-08-03T17:29:25.137Z,19.75
2022-08-03T17:31:53.017Z,19.83
2022-08-03T17:34:20.943Z,19.62
2022-08-03T17:37:27.006Z,19.27
2022-08-03T17:39:58.196Z,19.53
2022-08-03T17:42:38.870Z,19.96
2022-08-03T17:45:06.746Z,19.08
2022-08-03T17:47:42.880Z,19.41
2022-08-03T17:50:25.124Z,19.52
2022-08-03T17:52:59.638Z,19.51
2022-08-03T17:55:55.494Z,19.88
2022-08-03T17:58:21.792Z,19.83
2022-08-03T18:02:03.174Z,19.60
2022-08-03T18:04:01.156Z,19.78
2022-08-03T18:06:31.280Z,19.58
2022-08-03T18:09:00.083Z,20.22
2022-08-03T18:11:35.742Z,19.96
2022-08-03T18:14:16.153Z,19.62
2022-08-03T18:16:56.324Z,20.66
2022-08-03T18:20:03.530Z,20.25
2022-08-03T18:22:10.637Z,20.60
2022-08-03T18:24:38.269Z,20.94
2022-08-03T18:27:06.629Z,21.11
2022-08-03T18:29:37.064Z,21.31
2022-08-03T18:32:13.339Z,21.40
2022-08-03T18:34:53.094Z,22.05
2022-08-03T18:37:25.251Z,22.13
2022-08-03T18:39:58.316Z,22.66
2022-08-03T18:42:27.010Z,22.85
2022-08-03T18:44:56.194Z,22.81
2022-08-03T18:47:23.477Z,22.97
2022-08-03T18:50:08.454Z,23.30
2022-08-03T18:52:53.041Z,23.56
2022-08-03T18:58:30.146Z,24.12
2022-08-03T19:01:15.417Z,24.44
2022-08-03T19:04:35.655Z,24.66
2022-08-03T19:07:07.966Z,25.03
2022-08-03T19:09:48.734Z,25.41
2022-08-03T19:12:30.963Z,25.66
2022-08-03T19:15:13.520Z,25.78
2022-08-03T19:17:50.355Z,26.31
2022-08-03T19:20:22.515Z,26.34
2022-08-03T19:22:52.565Z,26.87
2022-08-03T19:25:19.216Z,27.02
2022-08-03T19:27:48.185Z,27.67
2022-08-03T19:30:35.638Z,27.51
2022-08-03T19:33:06.911Z,27.38
2022-08-03T19:35:52.214Z,27.74
2022-08-03T19:38:29.069Z,27.99
2022-08-03T19:41:03.514Z,27.97
2022-08-03T19:43:53.492Z,28.27
2022-08-03T19:46:27.618Z,28.50
2022-08-03T19:49:04.680Z,28.48
2022-08-03T19:51:58.391Z,28.46
2022-08-03T19:54:29.622Z,28.66
2022-08-03T19:57:00.328Z,28.82
2022-08-03T19:59:30.053Z,29.51
2022-08-03T20:01:57.486Z,29.13
2022-08-03T20:04:24.976Z,29.34
2022-08-03T20:06:52.188Z,29.62
2022-08-03T20:09:20.678Z,29.09
2022-08-03T20:11:47.807Z,29.66
2022-08-03T20:14:20.842Z,29.82
2022-08-03T20:16:53.515Z,29.76
2022-08-03T20:19:20.155Z,30.60
2022-08-03T20:21:48.820Z,30.49
2022-08-03T20:24:36.671Z,30.71
2022-08-03T20:27:08.056Z,31.17
2022-08-03T20:30:05.406Z,31.34
2022-08-03T20:32:27.872Z,31.41
2022-08-03T20:34:54.376Z,31.85
2022-08-03T20:37:22.060Z,32.13
2022-08-03T20:39:49.424Z,32.20
2022-08-03T20:42:21.770Z,32.79
2022-08-03T20:45:04.439Z,32.45
2022-08-03T20:47:33.862Z,32.60
2022-08-03T20:50:03.912Z,33.17
2022-08-03T20:52:33.333Z,32.95
2022-08-03T20:55:02.182Z,33.20
2022-08-03T20:57:33.195Z,33.59
2022-08-03T21:00:07.095Z,33.83
2022-08-03T21:02:36.650Z,33.70
2022-08-03T21:05:08.605Z,33.99
2022-08-03T21:10:38.004Z,34.13
2022-08-03T21:13:00.961Z,23.83
2022-08-03T21:13:12.153Z,33.79
2022-08-03T21:13:17.454Z,33.90
2022-08-03T21:16:12.730Z,34.23
2022-08-03T21:18:51.925Z,33.78
2022-08-03T21:21:22.170Z,34.49
2022-08-03T21:23:51.117Z,34.33
2022-08-03T21:26:19.838Z,34.87
2022-08-03T21:28:48.860Z,34.58
2022-08-03T21:31:25.617Z,34.69
2022-08-03T21:34:05.101Z,34.55
2022-08-03T21:36:35.961Z,34.77
2022-08-03T21:39:05.564Z,34.88
2022-08-03T21:41:32.604Z,35.23
2022-08-03T21:44:00.470Z,35.23
2022-08-03T21:46:36.860Z,35.25
2022-08-03T21:49:52.053Z,35.35
2022-08-03T21:51:59.700Z,35.16
2022-08-03T21:54:34.977Z,35.30
2022-08-03T21:57:08.718Z,35.25
2022-08-03T21:59:38.069Z,35.44
2022-08-03T22:02:06.462Z,35.67
2022-08-03T22:04:55.115Z,35.88
2022-08-03T22:07:24.047Z,35.92
2022-08-03T22:09:52.138Z,35.85
2022-08-03T22:12:23.115Z,35.87
2022-08-03T22:15:00.362Z,36.13
2022-08-03T22:17:55.146Z,36.29
2022-08-03T22:20:16.487Z,36.26
2022-08-03T22:22:55.217Z,36.29
2022-08-03T22:25:29.451Z,36.45
2022-08-03T22:27:58.478Z,36.46
2022-08-03T22:30:25.104Z,36.95
2022-08-03T22:32:54.313Z,36.37
2022-08-03T22:35:21.529Z,36.66
2022-08-03T22:37:53.872Z,36.66
2022-08-03T22:40:20.658Z,36.96
2022-08-03T22:42:51.959Z,37.19
2022-08-03T22:46:07.331Z,36.99
2022-08-03T22:48:08.014Z,36.98
2022-08-03T22:50:35.283Z,37.14
2022-08-03T22:53:02.086Z,37.02
2022-08-03T22:55:29.099Z,37.33
2022-08-03T22:57:56.323Z,37.37
2022-08-03T23:00:24.140Z,37.40
2022-08-03T23:02:51.805Z,37.29
2022-08-03T23:06:02.318Z,37.31
2022-08-03T23:08:15.011Z,37.39
2022-08-03T23:10:47.088Z,37.48
2022-08-03T23:13:17.408Z,37.45
2022-08-03T23:16:06.492Z,37.56
2022-08-03T23:18:37.781Z,37.52
2022-08-03T23:21:11.203Z,37.62
2022-08-03T23:23:44.613Z,37.85
2022-08-03T23:26:12.122Z,37.95
2022-08-03T23:28:39.833Z,38.05
2022-08-03T23:31:08.185Z,38.06
2022-08-03T23:33:38.709Z,38.10
2022-08-03T23:36:28.778Z,37.96
2022-08-03T23:38:54.163Z,38.26
2022-08-03T23:41:22.111Z,38.05
2022-08-03T23:43:51.853Z,38.22
2022-08-03T23:46:22.492Z,38.33
2022-08-03T23:48:50.883Z,38.86
2022-08-03T23:51:36.974Z,38.36
2022-08-03T23:54:09.879Z,38.63
2022-08-03T23:56:49.644Z,38.67
2022-08-03T23:59:40.193Z,38.35
